sensor_id;sensor_type;location;lat;lon;timestamp;temperature;humidity
27671;DHT22;15077;49.704;9.908;2023-08-08T00:01:18;17.40;65.70
27671;DHT22;15077;49.704;9.908;2023-08-08T00:03:44;17.30;65.70
27671;DHT22;15077;49.704;9.908;2023-08-08T00:06:11;17.30;65.70
27671;DHT22;15077;49.704;9.908;2023-08-08T00:08:39;17.40;65.70
27671;DHT22;15077;49.704;9.908;2023-08-08T00:11:07;17.40;65.70
27671;DHT22;15077;49.704;9.908;2023-08-08T00:13:33;17.40;65.80
27671;DHT22;15077;49.704;9.908;2023-08-08T00:16:00;17.40;65.80
27671;DHT22;15077;49.704;9.908;2023-08-08T00:18:27;17.40;65.80
27671;DHT22;15077;49.704;9.908;2023-08-08T00:20:54;17.40;65.80
27671;DHT22;15077;49.704;9.908;2023-08-08T00:23:19;17.40;65.80
27671;DHT22;15077;49.704;9.908;2023-08-08T00:25:45;17.40;65.80
27671;DHT22;15077;49.704;9.908;2023-08-08T00:28:15;17.40;65.90
27671;DHT22;15077;49.704;9.908;2023-08-08T00:30:42;17.40;65.80
27671;DHT22;15077;49.704;9.908;2023-08-08T00:33:08;17.40;65.80
27671;DHT22;15077;49.704;9.908;2023-08-08T00:35:33;17.40;65.80
27671;DHT22;15077;49.704;9.908;2023-08-08T00:37:59;17.40;65.90
27671;DHT22;15077;49.704;9.908;2023-08-08T00:40:25;17.40;65.90
27671;DHT22;15077;49.704;9.908;2023-08-08T00:42:51;17.40;65.80
27671;DHT22;15077;49.704;9.908;2023-08-08T00:45:18;17.40;65.90
27671;DHT22;15077;49.704;9.908;2023-08-08T00:47:44;17.40;65.80
27671;DHT22;15077;49.704;9.908;2023-08-08T00:50:10;17.40;65.80
27671;DHT22;15077;49.704;9.908;2023-08-08T00:52:37;17.40;65.80
27671;DHT22;15077;49.704;9.908;2023-08-08T00:55:05;17.40;65.90
27671;DHT22;15077;49.704;9.908;2023-08-08T00:57:32;17.40;65.90
27671;DHT22;15077;49.704;9.908;2023-08-08T01:00:01;17.40;65.90
27671;DHT22;15077;49.704;9.908;2023-08-08T01:02:30;17.40;65.90
27671;DHT22;15077;49.704;9.908;2023-08-08T01:04:57;17.40;66.00
27671;DHT22;15077;49.704;9.908;2023-08-08T01:07:43;17.40;66.00
27671;DHT22;15077;49.704;9.908;2023-08-08T01:10:17;17.40;66.00
27671;DHT22;15077;49.704;9.908;2023-08-08T01:12:53;17.40;66.00
27671;DHT22;15077;49.704;9.908;2023-08-08T01:15:25;17.40;66.00
27671;DHT22;15077;49.704;9.908;2023-08-08T01:17:53;17.40;66.00
27671;DHT22;15077;49.704;9.908;2023-08-08T01:20:21;17.40;66.10
27671;DHT22;15077;49.704;9.908;2023-08-08T01:23:13;17.40;66.10
27671;DHT22;15077;49.704;9.908;2023-08-08T01:25:42;17.30;66.20
27671;DHT22;15077;49.704;9.908;2023-08-08T01:28:09;17.30;66.10
27671;DHT22;15077;49.704;9.908;2023-08-08T01:30:35;17.30;66.10
27671;DHT22;15077;49.704;9.908;2023-08-08T01:33:03;17.30;66.20
27671;DHT22;15077;49.704;9.908;2023-08-08T01:35:32;17.30;66.30
27671;DHT22;15077;49.704;9.908;2023-08-08T01:38:21;17.30;66.30
27671;DHT22;15077;49.704;9.908;2023-08-08T01:41:04;17.30;66.40
27671;DHT22;15077;49.704;9.908;2023-08-08T01:43:36;17.30;66.40
27671;DHT22;15077;49.704;9.908;2023-08-08T01:46:04;17.30;66.40
27671;DHT22;15077;49.704;9.908;2023-08-08T01:48:31;17.30;66.50
27671;DHT22;15077;49.704;9.908;2023-08-08T01:50:57;17.20;66.50
27671;DHT22;15077;49.704;9.908;2023-08-08T01:53:23;17.20;66.60
27671;DHT22;15077;49.704;9.908;2023-08-08T01:55:52;17.20;66.60
27671;DHT22;15077;49.704;9.908;2023-08-08T01:58:20;17.20;66.60
27671;DHT22;15077;49.704;9.908;2023-08-08T02:00:47;17.10;66.60
27671;DHT22;15077;49.704;9.908;2023-08-08T02:03:13;17.10;66.70
27671;DHT22;15077;49.704;9.908;2023-08-08T02:05:40;17.10;66.80
27671;DHT22;15077;49.704;9.908;2023-08-08T02:08:08;17.10;66.70
27671;DHT22;15077;49.704;9.908;2023-08-08T02:10:35;17.00;66.70
27671;DHT22;15077;49.704;9.908;2023-08-08T02:13:01;17.00;66.70
27671;DHT22;15077;49.704;9.908;2023-08-08T02:15:26;17.00;66.70
27671;DHT22;15077;49.704;9.908;2023-08-08T02:17:52;17.00;66.80
27671;DHT22;15077;49.704;9.908;2023-08-08T02:20:18;16.90;66.70
27671;DHT22;15077;49.704;9.908;2023-08-08T02:22:45;16.90;66.70
27671;DHT22;15077;49.704;9.908;2023-08-08T02:25:13;16.90;66.80
27671;DHT22;15077;49.704;9.908;2023-08-08T02:27:40;16.90;66.80
27671;DHT22;15077;49.704;9.908;2023-08-08T02:30:08;16.90;67.00
27671;DHT22;15077;49.704;9.908;2023-08-08T02:32:37;16.90;67.70
27671;DHT22;15077;49.704;9.908;2023-08-08T02:35:04;16.80;67.10
27671;DHT22;15077;49.704;9.908;2023-08-08T02:37:31;16.80;67.20
27671;DHT22;15077;49.704;9.908;2023-08-08T02:39:59;16.80;67.30
27671;DHT22;15077;49.704;9.908;2023-08-08T02:42:26;16.70;67.20
27671;DHT22;15077;49.704;9.908;2023-08-08T02:44:52;16.70;67.30
27671;DHT22;15077;49.704;9.908;2023-08-08T02:47:18;16.70;67.40
27671;DHT22;15077;49.704;9.908;2023-08-08T02:49:46;16.70;67.30
27671;DHT22;15077;49.704;9.908;2023-08-08T02:52:12;16.60;67.30
27671;DHT22;15077;49.704;9.908;2023-08-08T02:54:38;16.60;67.50
27671;DHT22;15077;49.704;9.908;2023-08-08T02:57:05;16.60;67.60
27671;DHT22;15077;49.704;9.908;2023-08-08T02:59:32;16.50;67.60
27671;DHT22;15077;49.704;9.908;2023-08-08T03:01:57;16.50;67.60
27671;DHT22;15077;49.704;9.908;2023-08-08T03:04:23;16.50;67.70
27671;DHT22;15077;49.704;9.908;2023-08-08T03:06:50;16.40;67.70
27671;DHT22;15077;49.704;9.908;2023-08-08T03:09:15;16.40;67.70
27671;DHT22;15077;49.704;9.908;2023-08-08T03:11:41;16.40;67.80
27671;DHT22;15077;49.704;9.908;2023-08-08T03:14:08;16.40;67.80
27671;DHT22;15077;49.704;9.908;2023-08-08T03:16:35;16.40;68.00
27671;DHT22;15077;49.704;9.908;2023-08-08T03:19:01;16.30;67.90
27671;DHT22;15077;49.704;9.908;2023-08-08T03:21:27;16.30;67.90
27671;DHT22;15077;49.704;9.908;2023-08-08T03:23:53;16.30;68.00
27671;DHT22;15077;49.704;9.908;2023-08-08T03:26:19;16.30;68.10
27671;DHT22;15077;49.704;9.908;2023-08-08T03:28:46;16.20;68.00
27671;DHT22;15077;49.704;9.908;2023-08-08T03:31:16;16.20;68.00
27671;DHT22;15077;49.704;9.908;2023-08-08T03:33:44;16.20;68.10
27671;DHT22;15077;49.704;9.908;2023-08-08T03:36:14;16.20;68.20
27671;DHT22;15077;49.704;9.908;2023-08-08T03:38:41;16.20;68.30
27671;DHT22;15077;49.704;9.908;2023-08-08T03:41:12;16.10;68.20
27671;DHT22;15077;49.704;9.908;2023-08-08T03:43:39;16.20;68.40
27671;DHT22;15077;49.704;9.908;2023-08-08T03:46:06;16.10;68.40
27671;DHT22;15077;49.704;9.908;2023-08-08T03:48:34;16.10;68.50
27671;DHT22;15077;49.704;9.908;2023-08-08T03:51:00;16.10;68.50
27671;DHT22;15077;49.704;9.908;2023-08-08T03:53:29;16.00;68.60
27671;DHT22;15077;49.704;9.908;2023-08-08T03:55:55;16.00;68.50
27671;DHT22;15077;49.704;9.908;2023-08-08T03:58:21;16.00;68.50
27671;DHT22;15077;49.704;9.908;2023-08-08T04:00:47;16.00;68.50
27671;DHT22;15077;49.704;9.908;2023-08-08T04:03:14;16.00;68.50
27671;DHT22;15077;49.704;9.908;2023-08-08T04:05:46;16.00;68.50
27671;DHT22;15077;49.704;9.908;2023-08-08T04:08:15;15.90;68.50
27671;DHT22;15077;49.704;9.908;2023-08-08T04:10:43;15.90;68.50
27671;DHT22;15077;49.704;9.908;2023-08-08T04:13:13;15.90;68.50
27671;DHT22;15077;49.704;9.908;2023-08-08T04:15:40;15.90;68.50
27671;DHT22;15077;49.704;9.908;2023-08-08T04:18:06;15.90;68.70
27671;DHT22;15077;49.704;9.908;2023-08-08T04:20:32;15.90;68.70
27671;DHT22;15077;49.704;9.908;2023-08-08T04:22:59;15.80;68.80
27671;DHT22;15077;49.704;9.908;2023-08-08T04:25:26;15.80;68.90
27671;DHT22;15077;49.704;9.908;2023-08-08T04:27:53;15.80;69.00
27671;DHT22;15077;49.704;9.908;2023-08-08T04:30:19;15.70;69.00
27671;DHT22;15077;49.704;9.908;2023-08-08T04:32:45;15.70;69.00
27671;DHT22;15077;49.704;9.908;2023-08-08T04:35:11;15.60;69.00
27671;DHT22;15077;49.704;9.908;2023-08-08T04:37:36;15.60;69.10
27671;DHT22;15077;49.704;9.908;2023-08-08T04:40:02;15.60;69.10
27671;DHT22;15077;49.704;9.908;2023-08-08T04:42:29;15.50;69.20
27671;DHT22;15077;49.704;9.908;2023-08-08T04:44:55;15.60;69.40
27671;DHT22;15077;49.704;9.908;2023-08-08T04:47:21;15.60;69.50
27671;DHT22;15077;49.704;9.908;2023-08-08T04:49:47;15.60;69.50
27671;DHT22;15077;49.704;9.908;2023-08-08T04:52:12;15.50;69.50
27671;DHT22;15077;49.704;9.908;2023-08-08T04:54:38;15.50;69.70
27671;DHT22;15077;49.704;9.908;2023-08-08T04:57:04;15.50;69.70
27671;DHT22;15077;49.704;9.908;2023-08-08T04:59:30;15.50;70.00
27671;DHT22;15077;49.704;9.908;2023-08-08T05:01:56;15.50;70.00
27671;DHT22;15077;49.704;9.908;2023-08-08T05:04:21;15.50;70.30
27671;DHT22;15077;49.704;9.908;2023-08-08T05:06:47;15.50;70.30
27671;DHT22;15077;49.704;9.908;2023-08-08T05:09:13;15.50;70.30
27671;DHT22;15077;49.704;9.908;2023-08-08T05:11:39;15.50;70.40
27671;DHT22;15077;49.704;9.908;2023-08-08T05:14:04;15.50;70.70
27671;DHT22;15077;49.704;9.908;2023-08-08T05:16:30;15.50;70.70
27671;DHT22;15077;49.704;9.908;2023-08-08T05:18:56;15.50;70.80
27671;DHT22;15077;49.704;9.908;2023-08-08T05:21:21;15.50;71.00
27671;DHT22;15077;49.704;9.908;2023-08-08T05:23:47;15.60;71.20
27671;DHT22;15077;49.704;9.908;2023-08-08T05:26:14;15.60;71.20
27671;DHT22;15077;49.704;9.908;2023-08-08T05:28:41;15.60;71.40
27671;DHT22;15077;49.704;9.908;2023-08-08T05:31:06;15.70;71.60
27671;DHT22;15077;49.704;9.908;2023-08-08T05:33:32;15.70;71.70
27671;DHT22;15077;49.704;9.908;2023-08-08T05:35:58;15.80;71.80
27671;DHT22;15077;49.704;9.908;2023-08-08T05:38:24;15.80;71.90
27671;DHT22;15077;49.704;9.908;2023-08-08T05:40:50;15.90;71.90
27671;DHT22;15077;49.704;9.908;2023-08-08T05:43:17;16.00;71.90
27671;DHT22;15077;49.704;9.908;2023-08-08T05:45:46;16.00;71.90
27671;DHT22;15077;49.704;9.908;2023-08-08T05:48:12;16.10;71.90
27671;DHT22;15077;49.704;9.908;2023-08-08T05:50:39;16.10;71.90
27671;DHT22;15077;49.704;9.908;2023-08-08T05:53:05;16.20;71.90
27671;DHT22;15077;49.704;9.908;2023-08-08T05:55:31;16.30;72.00
27671;DHT22;15077;49.704;9.908;2023-08-08T05:57:57;16.30;71.80
27671;DHT22;15077;49.704;9.908;2023-08-08T06:00:23;16.40;71.90
27671;DHT22;15077;49.704;9.908;2023-08-08T06:02:49;16.40;71.70
27671;DHT22;15077;49.704;9.908;2023-08-08T06:05:17;16.50;71.80
27671;DHT22;15077;49.704;9.908;2023-08-08T06:07:43;16.60;71.80
27671;DHT22;15077;49.704;9.908;2023-08-08T06:10:09;16.60;71.80
27671;DHT22;15077;49.704;9.908;2023-08-08T06:12:35;16.70;71.80
27671;DHT22;15077;49.704;9.908;2023-08-08T06:15:01;16.70;71.70
27671;DHT22;15077;49.704;9.908;2023-08-08T06:17:29;16.80;71.80
27671;DHT22;15077;49.704;9.908;2023-08-08T06:19:56;16.90;71.80
27671;DHT22;15077;49.704;9.908;2023-08-08T06:22:22;16.90;71.70
27671;DHT22;15077;49.704;9.908;2023-08-08T06:24:49;17.00;71.90
27671;DHT22;15077;49.704;9.908;2023-08-08T06:27:15;17.00;71.80
27671;DHT22;15077;49.704;9.908;2023-08-08T06:29:41;17.10;71.60
27671;DHT22;15077;49.704;9.908;2023-08-08T06:32:06;17.10;71.50
27671;DHT22;15077;49.704;9.908;2023-08-08T06:34:33;17.20;71.50
27671;DHT22;15077;49.704;9.908;2023-08-08T06:36:58;17.30;71.50
27671;DHT22;15077;49.704;9.908;2023-08-08T06:39:24;17.30;71.40
27671;DHT22;15077;49.704;9.908;2023-08-08T06:41:50;17.40;71.30
27671;DHT22;15077;49.704;9.908;2023-08-08T06:44:16;17.40;71.40
27671;DHT22;15077;49.704;9.908;2023-08-08T06:46:42;17.50;71.30
27671;DHT22;15077;49.704;9.908;2023-08-08T06:49:08;17.50;71.30
27671;DHT22;15077;49.704;9.908;2023-08-08T06:51:34;17.60;71.10
27671;DHT22;15077;49.704;9.908;2023-08-08T06:54:00;17.70;71.10
27671;DHT22;15077;49.704;9.908;2023-08-08T06:56:26;17.70;70.90
27671;DHT22;15077;49.704;9.908;2023-08-08T06:58:53;17.80;70.70
27671;DHT22;15077;49.704;9.908;2023-08-08T07:01:19;17.80;71.10
27671;DHT22;15077;49.704;9.908;2023-08-08T07:03:45;17.90;70.50
27671;DHT22;15077;49.704;9.908;2023-08-08T07:06:12;17.90;70.40
27671;DHT22;15077;49.704;9.908;2023-08-08T07:08:38;18.00;70.30
27671;DHT22;15077;49.704;9.908;2023-08-08T07:11:07;18.10;70.20
27671;DHT22;15077;49.704;9.908;2023-08-08T07:13:33;18.20;70.20
27671;DHT22;15077;49.704;9.908;2023-08-08T07:15:59;18.20;69.90
27671;DHT22;15077;49.704;9.908;2023-08-08T07:18:25;18.20;69.90
27671;DHT22;15077;49.704;9.908;2023-08-08T07:20:51;18.30;69.60
27671;DHT22;15077;49.704;9.908;2023-08-08T07:23:17;18.40;69.30
27671;DHT22;15077;49.704;9.908;2023-08-08T07:25:43;18.40;69.00
27671;DHT22;15077;49.704;9.908;2023-08-08T07:28:11;18.50;68.90
27671;DHT22;15077;49.704;9.908;2023-08-08T07:30:37;18.50;68.80
27671;DHT22;15077;49.704;9.908;2023-08-08T07:33:02;18.60;68.80
27671;DHT22;15077;49.704;9.908;2023-08-08T07:35:28;18.60;68.20
27671;DHT22;15077;49.704;9.908;2023-08-08T07:37:54;18.70;68.50
27671;DHT22;15077;49.704;9.908;2023-08-08T07:40:20;18.70;68.40
27671;DHT22;15077;49.704;9.908;2023-08-08T07:42:47;18.80;68.00
27671;DHT22;15077;49.704;9.908;2023-08-08T07:45:14;18.80;67.50
27671;DHT22;15077;49.704;9.908;2023-08-08T07:47:40;18.90;67.10
27671;DHT22;15077;49.704;9.908;2023-08-08T07:50:07;19.00;67.00
27671;DHT22;15077;49.704;9.908;2023-08-08T07:52:34;19.00;67.10
27671;DHT22;15077;49.704;9.908;2023-08-08T07:55:01;19.10;66.40
27671;DHT22;15077;49.704;9.908;2023-08-08T07:57:27;19.10;66.20
27671;DHT22;15077;49.704;9.908;2023-08-08T07:59:53;19.20;66.00
27671;DHT22;15077;49.704;9.908;2023-08-08T08:02:19;19.30;65.90
27671;DHT22;15077;49.704;9.908;2023-08-08T08:04:45;19.30;66.20
27671;DHT22;15077;49.704;9.908;2023-08-08T08:07:10;19.40;65.90
27671;DHT22;15077;49.704;9.908;2023-08-08T08:09:36;19.50;65.70
27671;DHT22;15077;49.704;9.908;2023-08-08T08:12:05;19.50;65.10
27671;DHT22;15077;49.704;9.908;2023-08-08T08:14:34;19.60;64.80
27671;DHT22;15077;49.704;9.908;2023-08-08T08:17:00;19.70;64.60
27671;DHT22;15077;49.704;9.908;2023-08-08T08:19:26;19.70;63.90
27671;DHT22;15077;49.704;9.908;2023-08-08T08:21:51;19.80;62.70
27671;DHT22;15077;49.704;9.908;2023-08-08T08:24:17;19.90;62.90
27671;DHT22;15077;49.704;9.908;2023-08-08T08:26:43;19.90;61.70
27671;DHT22;15077;49.704;9.908;2023-08-08T08:29:08;19.90;60.50
27671;DHT22;15077;49.704;9.908;2023-08-08T08:31:34;20.00;59.80
27671;DHT22;15077;49.704;9.908;2023-08-08T08:34:02;20.00;60.10
27671;DHT22;15077;49.704;9.908;2023-08-08T08:36:28;20.10;59.80
27671;DHT22;15077;49.704;9.908;2023-08-08T08:38:54;20.10;59.60
27671;DHT22;15077;49.704;9.908;2023-08-08T08:41:23;20.20;59.40
27671;DHT22;15077;49.704;9.908;2023-08-08T08:43:53;20.20;59.60
27671;DHT22;15077;49.704;9.908;2023-08-08T08:46:21;20.30;59.50
27671;DHT22;15077;49.704;9.908;2023-08-08T08:48:49;20.40;58.10
27671;DHT22;15077;49.704;9.908;2023-08-08T08:51:17;20.40;58.20
27671;DHT22;15077;49.704;9.908;2023-08-08T08:53:44;20.40;57.90
27671;DHT22;15077;49.704;9.908;2023-08-08T08:56:13;20.50;58.20
27671;DHT22;15077;49.704;9.908;2023-08-08T08:58:40;20.50;57.60
27671;DHT22;15077;49.704;9.908;2023-08-08T09:01:07;20.50;58.30
27671;DHT22;15077;49.704;9.908;2023-08-08T09:03:34;20.60;58.50
27671;DHT22;15077;49.704;9.908;2023-08-08T09:06:01;20.60;56.80
27671;DHT22;15077;49.704;9.908;2023-08-08T09:08:28;20.70;57.20
27671;DHT22;15077;49.704;9.908;2023-08-08T09:10:55;20.70;56.90
27671;DHT22;15077;49.704;9.908;2023-08-08T09:13:22;20.80;57.40
27671;DHT22;15077;49.704;9.908;2023-08-08T09:15:52;20.90;56.80
27671;DHT22;15077;49.704;9.908;2023-08-08T09:18:19;21.00;56.80
27671;DHT22;15077;49.704;9.908;2023-08-08T09:20:49;21.10;56.80
27671;DHT22;15077;49.704;9.908;2023-08-08T09:23:15;21.10;56.90
27671;DHT22;15077;49.704;9.908;2023-08-08T09:25:41;21.20;56.20
27671;DHT22;15077;49.704;9.908;2023-08-08T09:28:06;21.30;56.90
27671;DHT22;15077;49.704;9.908;2023-08-08T09:30:32;21.40;56.10
27671;DHT22;15077;49.704;9.908;2023-08-08T09:33:00;21.50;55.30
27671;DHT22;15077;49.704;9.908;2023-08-08T09:35:28;21.50;55.00
27671;DHT22;15077;49.704;9.908;2023-08-08T09:37:55;21.60;54.50
27671;DHT22;15077;49.704;9.908;2023-08-08T09:40:22;21.60;54.20
27671;DHT22;15077;49.704;9.908;2023-08-08T09:42:51;21.60;53.80
27671;DHT22;15077;49.704;9.908;2023-08-08T09:45:19;21.70;54.00
27671;DHT22;15077;49.704;9.908;2023-08-08T09:47:45;21.70;54.40
27671;DHT22;15077;49.704;9.908;2023-08-08T09:50:11;21.70;54.00
27671;DHT22;15077;49.704;9.908;2023-08-08T09:52:37;21.70;54.40
27671;DHT22;15077;49.704;9.908;2023-08-08T09:55:05;21.70;54.30
27671;DHT22;15077;49.704;9.908;2023-08-08T09:57:32;21.80;54.30
27671;DHT22;15077;49.704;9.908;2023-08-08T09:59:58;21.80;53.50
27671;DHT22;15077;49.704;9.908;2023-08-08T10:02:24;21.90;54.30
27671;DHT22;15077;49.704;9.908;2023-08-08T10:04:51;21.90;54.80
27671;DHT22;15077;49.704;9.908;2023-08-08T10:07:18;21.90;54.30
27671;DHT22;15077;49.704;9.908;2023-08-08T10:09:44;22.00;54.40
27671;DHT22;15077;49.704;9.908;2023-08-08T10:12:11;22.10;54.70
27671;DHT22;15077;49.704;9.908;2023-08-08T10:14:41;22.20;54.40
27671;DHT22;15077;49.704;9.908;2023-08-08T10:17:08;22.20;54.10
27671;DHT22;15077;49.704;9.908;2023-08-08T10:19:34;22.30;54.40
27671;DHT22;15077;49.704;9.908;2023-08-08T10:22:05;22.40;52.90
27671;DHT22;15077;49.704;9.908;2023-08-08T10:24:35;22.50;53.30
27671;DHT22;15077;49.704;9.908;2023-08-08T10:27:03;22.50;52.70
27671;DHT22;15077;49.704;9.908;2023-08-08T10:29:31;22.60;52.50
27671;DHT22;15077;49.704;9.908;2023-08-08T10:32:04;22.60;52.70
27671;DHT22;15077;49.704;9.908;2023-08-08T10:34:44;22.70;53.00
27671;DHT22;15077;49.704;9.908;2023-08-08T10:37:14;22.80;52.80
27671;DHT22;15077;49.704;9.908;2023-08-08T10:40:00;22.80;52.20
27671;DHT22;15077;49.704;9.908;2023-08-08T10:42:31;22.90;52.70
27671;DHT22;15077;49.704;9.908;2023-08-08T10:45:02;22.90;52.00
27671;DHT22;15077;49.704;9.908;2023-08-08T10:47:35;22.90;51.30
27671;DHT22;15077;49.704;9.908;2023-08-08T10:50:06;22.90;51.20
27671;DHT22;15077;49.704;9.908;2023-08-08T10:52:37;23.00;51.90
27671;DHT22;15077;49.704;9.908;2023-08-08T10:55:26;23.00;51.10
27671;DHT22;15077;49.704;9.908;2023-08-08T10:58:08;23.00;51.80
27671;DHT22;15077;49.704;9.908;2023-08-08T11:00:37;23.00;51.40
27671;DHT22;15077;49.704;9.908;2023-08-08T11:03:08;23.00;51.50
27671;DHT22;15077;49.704;9.908;2023-08-08T11:05:35;23.00;51.80
27671;DHT22;15077;49.704;9.908;2023-08-08T11:08:04;23.10;52.50
27671;DHT22;15077;49.704;9.908;2023-08-08T11:10:38;23.10;52.30
27671;DHT22;15077;49.704;9.908;2023-08-08T11:13:06;23.20;51.60
27671;DHT22;15077;49.704;9.908;2023-08-08T11:15:34;23.30;51.60
27671;DHT22;15077;49.704;9.908;2023-08-08T11:18:02;23.40;51.90
27671;DHT22;15077;49.704;9.908;2023-08-08T11:20:33;23.40;50.90
27671;DHT22;15077;49.704;9.908;2023-08-08T11:23:00;23.40;50.40
27671;DHT22;15077;49.704;9.908;2023-08-08T11:25:28;23.50;51.10
27671;DHT22;15077;49.704;9.908;2023-08-08T11:27:56;23.50;50.10
27671;DHT22;15077;49.704;9.908;2023-08-08T11:30:24;23.50;49.90
27671;DHT22;15077;49.704;9.908;2023-08-08T11:32:54;23.50;48.90
27671;DHT22;15077;49.704;9.908;2023-08-08T11:35:24;23.50;50.20
27671;DHT22;15077;49.704;9.908;2023-08-08T11:37:52;23.60;50.30
27671;DHT22;15077;49.704;9.908;2023-08-08T11:40:20;23.50;49.50
27671;DHT22;15077;49.704;9.908;2023-08-08T11:42:47;23.60;50.30
27671;DHT22;15077;49.704;9.908;2023-08-08T11:45:16;23.60;50.80
27671;DHT22;15077;49.704;9.908;2023-08-08T11:47:42;23.70;50.50
27671;DHT22;15077;49.704;9.908;2023-08-08T11:50:10;23.70;50.50
27671;DHT22;15077;49.704;9.908;2023-08-08T11:52:46;23.80;50.90
27671;DHT22;15077;49.704;9.908;2023-08-08T11:55:12;23.90;50.30
27671;DHT22;15077;49.704;9.908;2023-08-08T11:57:39;23.90;50.50
27671;DHT22;15077;49.704;9.908;2023-08-08T12:00:10;24.00;50.30
27671;DHT22;15077;49.704;9.908;2023-08-08T12:02:40;24.00;48.90
27671;DHT22;15077;49.704;9.908;2023-08-08T12:05:12;24.10;48.90
27671;DHT22;15077;49.704;9.908;2023-08-08T12:07:40;24.10;48.80
27671;DHT22;15077;49.704;9.908;2023-08-08T12:10:18;24.10;48.90
27671;DHT22;15077;49.704;9.908;2023-08-08T12:12:46;24.20;49.20
27671;DHT22;15077;49.704;9.908;2023-08-08T12:15:12;24.20;49.50
27671;DHT22;15077;49.704;9.908;2023-08-08T12:17:39;24.20;49.20
27671;DHT22;15077;49.704;9.908;2023-08-08T12:20:07;24.20;48.90
27671;DHT22;15077;49.704;9.908;2023-08-08T12:22:35;24.20;49.10
27671;DHT22;15077;49.704;9.908;2023-08-08T12:25:01;24.30;49.80
27671;DHT22;15077;49.704;9.908;2023-08-08T12:27:29;24.30;47.30
27671;DHT22;15077;49.704;9.908;2023-08-08T12:29:55;24.40;48.10
27671;DHT22;15077;49.704;9.908;2023-08-08T12:32:22;24.40;48.80
27671;DHT22;15077;49.704;9.908;2023-08-08T12:34:49;24.40;48.10
27671;DHT22;15077;49.704;9.908;2023-08-08T12:37:15;24.50;47.40
27671;DHT22;15077;49.704;9.908;2023-08-08T12:39:41;24.50;47.30
27671;DHT22;15077;49.704;9.908;2023-08-08T12:42:07;24.50;47.60
27671;DHT22;15077;49.704;9.908;2023-08-08T12:44:33;24.40;47.50
27671;DHT22;15077;49.704;9.908;2023-08-08T12:46:59;24.40;47.30
27671;DHT22;15077;49.704;9.908;2023-08-08T12:49:24;24.40;47.60
27671;DHT22;15077;49.704;9.908;2023-08-08T12:51:51;24.40;46.50
27671;DHT22;15077;49.704;9.908;2023-08-08T12:54:17;24.40;46.90
27671;DHT22;15077;49.704;9.908;2023-08-08T12:56:43;24.30;47.00
27671;DHT22;15077;49.704;9.908;2023-08-08T12:59:09;24.40;47.30
27671;DHT22;15077;49.704;9.908;2023-08-08T13:01:35;24.40;47.60
27671;DHT22;15077;49.704;9.908;2023-08-08T13:04:00;24.40;47.40
27671;DHT22;15077;49.704;9.908;2023-08-08T13:06:26;24.40;46.50
27671;DHT22;15077;49.704;9.908;2023-08-08T13:08:52;24.40;45.80
27671;DHT22;15077;49.704;9.908;2023-08-08T13:11:18;24.40;46.50
27671;DHT22;15077;49.704;9.908;2023-08-08T13:13:44;24.40;46.40
27671;DHT22;15077;49.704;9.908;2023-08-08T13:16:09;24.40;46.60
27671;DHT22;15077;49.704;9.908;2023-08-08T13:18:36;24.40;47.20
27671;DHT22;15077;49.704;9.908;2023-08-08T13:21:02;24.30;46.50
27671;DHT22;15077;49.704;9.908;2023-08-08T13:23:28;24.30;46.10
27671;DHT22;15077;49.704;9.908;2023-08-08T13:25:54;24.30;46.50
27671;DHT22;15077;49.704;9.908;2023-08-08T13:28:20;24.30;46.50
27671;DHT22;15077;49.704;9.908;2023-08-08T13:30:45;24.30;46.50
27671;DHT22;15077;49.704;9.908;2023-08-08T13:33:11;24.30;46.70
27671;DHT22;15077;49.704;9.908;2023-08-08T13:35:37;24.20;46.90
27671;DHT22;15077;49.704;9.908;2023-08-08T13:38:03;24.20;47.00
27671;DHT22;15077;49.704;9.908;2023-08-08T13:40:29;24.30;47.10
27671;DHT22;15077;49.704;9.908;2023-08-08T13:42:54;24.30;46.40
27671;DHT22;15077;49.704;9.908;2023-08-08T13:45:20;24.30;46.70
27671;DHT22;15077;49.704;9.908;2023-08-08T13:47:48;24.30;47.10
27671;DHT22;15077;49.704;9.908;2023-08-08T13:50:14;24.30;46.90
27671;DHT22;15077;49.704;9.908;2023-08-08T13:52:40;24.30;46.30
27671;DHT22;15077;49.704;9.908;2023-08-08T13:55:08;24.30;46.80
27671;DHT22;15077;49.704;9.908;2023-08-08T13:57:34;24.30;47.00
27671;DHT22;15077;49.704;9.908;2023-08-08T14:00:01;24.30;47.30
27671;DHT22;15077;49.704;9.908;2023-08-08T14:02:28;24.30;47.30
27671;DHT22;15077;49.704;9.908;2023-08-08T14:04:55;24.30;47.30
27671;DHT22;15077;49.704;9.908;2023-08-08T14:07:21;24.30;47.30
27671;DHT22;15077;49.704;9.908;2023-08-08T14:09:47;24.20;47.50
27671;DHT22;15077;49.704;9.908;2023-08-08T14:12:13;24.30;47.30
27671;DHT22;15077;49.704;9.908;2023-08-08T14:14:38;24.30;47.00
27671;DHT22;15077;49.704;9.908;2023-08-08T14:17:04;24.30;46.90
27671;DHT22;15077;49.704;9.908;2023-08-08T14:19:30;24.30;46.50
27671;DHT22;15077;49.704;9.908;2023-08-08T14:21:56;24.30;46.70
27671;DHT22;15077;49.704;9.908;2023-08-08T14:24:22;24.40;46.10
27671;DHT22;15077;49.704;9.908;2023-08-08T14:26:47;24.30;45.90
27671;DHT22;15077;49.704;9.908;2023-08-08T14:29:13;24.30;46.60
27671;DHT22;15077;49.704;9.908;2023-08-08T14:31:39;24.40;46.30
27671;DHT22;15077;49.704;9.908;2023-08-08T14:34:05;24.40;46.10
27671;DHT22;15077;49.704;9.908;2023-08-08T14:36:30;24.40;46.00
27671;DHT22;15077;49.704;9.908;2023-08-08T14:38:56;24.40;46.00
27671;DHT22;15077;49.704;9.908;2023-08-08T14:41:22;24.30;46.00
27671;DHT22;15077;49.704;9.908;2023-08-08T14:43:48;24.30;46.10
27671;DHT22;15077;49.704;9.908;2023-08-08T14:46:13;24.30;46.60
27671;DHT22;15077;49.704;9.908;2023-08-08T14:48:40;24.20;46.80
27671;DHT22;15077;49.704;9.908;2023-08-08T14:51:06;24.20;47.00
27671;DHT22;15077;49.704;9.908;2023-08-08T14:53:31;24.20;47.20
27671;DHT22;15077;49.704;9.908;2023-08-08T14:55:57;24.20;47.10
27671;DHT22;15077;49.704;9.908;2023-08-08T14:58:23;24.20;46.90
27671;DHT22;15077;49.704;9.908;2023-08-08T15:00:49;24.20;46.50
27671;DHT22;15077;49.704;9.908;2023-08-08T15:03:15;24.20;46.30
27671;DHT22;15077;49.704;9.908;2023-08-08T15:05:42;24.20;46.30
27671;DHT22;15077;49.704;9.908;2023-08-08T15:08:10;24.20;45.90
27671;DHT22;15077;49.704;9.908;2023-08-08T15:10:36;24.10;45.90
27671;DHT22;15077;49.704;9.908;2023-08-08T15:13:02;24.10;46.30
27671;DHT22;15077;49.704;9.908;2023-08-08T15:15:28;24.10;46.00
27671;DHT22;15077;49.704;9.908;2023-08-08T15:17:55;24.00;45.90
27671;DHT22;15077;49.704;9.908;2023-08-08T15:20:21;24.00;45.70
27671;DHT22;15077;49.704;9.908;2023-08-08T15:22:47;24.00;45.80
27671;DHT22;15077;49.704;9.908;2023-08-08T15:25:12;23.90;46.00
27671;DHT22;15077;49.704;9.908;2023-08-08T15:27:38;23.90;46.80
27671;DHT22;15077;49.704;9.908;2023-08-08T15:30:04;23.90;46.20